Time;durP1;ratioP1;P1;durP2;ratioP2;P2;SDS_P1;SDS_P2;PMS_P1;PMS_P2;Temp;Humidity;BMP_temperature;BMP_pressure;BME280_temperature;BME280_humidity;BME280_pressure;Samples;Min_cycle;Max_cycle;Signal;HPM_P1;HPM_P2
2023/10/13 00:02:07;;;;;;;29.10;17.40;;;16.30;99.90;;;;;;5014925;28;20133;-78
2023/10/13 00:04:35;;;;;;;29.77;18.85;;;16.30;99.90;;;;;;5012887;28;20053;-76
2023/10/13 00:07:02;;;;;;;27.17;16.67;;;16.30;99.90;;;;;;5012634;28;20126;-78
2023/10/13 00:09:37;;;;;;;31.08;16.92;;;16.30;99.90;;;;;;5012810;28;20057;-78
2023/10/13 00:12:08;;;;;;;27.35;17.60;;;16.40;99.90;;;;;;5013833;28;20060;-77
2023/10/13 00:14:33;;;;;;;32.08;17.45;;;16.40;99.90;;;;;;5013602;28;20387;-78
2023/10/13 00:17:04;;;;;;;29.45;17.05;;;16.40;99.90;;;;;;5013877;28;20053;-79
2023/10/13 00:19:38;;;;;;;25.67;16.13;;;16.40;99.90;;;;;;5014585;28;20089;-78
2023/10/13 00:22:10;;;;;;;26.52;16.70;;;16.40;99.90;;;;;;5013604;28;20096;-77
2023/10/13 00:24:43;;;;;;;28.45;16.92;;;16.50;99.90;;;;;;5013996;28;20042;-77
2023/10/13 00:27:24;;;;;;;28.45;17.60;;;16.50;99.90;;;;;;5000707;28;20053;-78
2023/10/13 00:29:51;;;;;;;27.20;17.23;;;16.40;99.90;;;;;;5001107;28;20053;-77
2023/10/13 00:32:23;;;;;;;28.05;16.35;;;16.50;99.90;;;;;;4984195;28;20513;-76
2023/10/13 00:34:55;;;;;;;31.33;17.83;;;16.50;99.90;;;;;;5001154;28;20053;-77
2023/10/13 00:37:27;;;;;;;29.75;15.93;;;16.50;99.90;;;;;;4984926;28;20544;-77
2023/10/13 00:39:56;;;;;;;27.58;16.98;;;16.50;99.90;;;;;;5001032;28;20056;-77
2023/10/13 00:42:50;;;;;;;26.73;16.58;;;16.50;99.90;;;;;;5017348;28;20049;-77
2023/10/13 00:45:08;;;;;;;26.60;16.17;;;16.50;99.90;;;;;;5001335;28;20050;-76
2023/10/13 00:47:49;;;;;;;29.13;16.77;;;16.50;99.90;;;;;;5016394;28;20389;-76
2023/10/13 00:50:17;;;;;;;27.27;16.77;;;16.50;99.90;;;;;;4999781;28;20398;-76
2023/10/13 00:52:46;;;;;;;27.33;17.05;;;16.50;99.90;;;;;;5016202;28;20072;-77
2023/10/13 00:55:14;;;;;;;29.25;17.00;;;16.50;99.90;;;;;;5017664;28;20084;-76
2023/10/13 00:57:40;;;;;;;26.65;17.02;;;16.50;99.90;;;;;;5016173;28;20084;-77
2023/10/13 01:00:19;;;;;;;30.45;17.48;;;16.50;99.90;;;;;;5016948;28;20073;-76
2023/10/13 01:02:56;;;;;;;26.77;17.63;;;16.50;99.90;;;;;;5016867;28;20042;-77
2023/10/13 01:05:26;;;;;;;25.08;16.17;;;16.50;99.90;;;;;;5016870;28;20042;-77
2023/10/13 01:07:54;;;;;;;26.83;16.73;;;16.50;99.90;;;;;;5015941;28;20394;-76
2023/10/13 01:10:27;;;;;;;27.25;16.30;;;16.50;99.90;;;;;;5015664;28;20057;-77
2023/10/13 01:12:54;;;;;;;27.38;17.77;;;16.50;99.90;;;;;;5015952;28;20380;-77
2023/10/13 01:15:25;;;;;;;27.38;16.90;;;16.50;99.90;;;;;;5017366;28;20133;-76
2023/10/13 01:18:10;;;;;;;28.50;16.67;;;16.50;99.90;;;;;;5016573;28;20050;-76
2023/10/13 01:20:43;;;;;;;26.73;15.95;;;16.50;99.90;;;;;;5015726;28;20371;-78
2023/10/13 01:23:18;;;;;;;31.55;17.60;;;16.50;99.90;;;;;;4999443;28;20068;-78
2023/10/13 01:25:45;;;;;;;25.38;17.13;;;16.50;99.90;;;;;;5016603;28;20084;-78
2023/10/13 01:28:15;;;;;;;28.67;17.73;;;16.50;99.90;;;;;;5015507;28;20206;-77
2023/10/13 01:30:50;;;;;;;30.23;18.02;;;16.50;99.90;;;;;;4999162;28;20053;-78
2023/10/13 01:33:28;;;;;;;31.27;18.77;;;16.50;99.90;;;;;;5016540;28;20050;-78
2023/10/13 01:35:58;;;;;;;29.35;18.55;;;16.40;99.90;;;;;;5001620;28;20088;-79
2023/10/13 01:38:28;;;;;;;29.60;17.45;;;16.50;99.90;;;;;;5016388;28;20054;-78
2023/10/13 01:40:56;;;;;;;27.23;16.40;;;16.50;99.90;;;;;;5016572;28;20118;-77
2023/10/13 01:43:22;;;;;;;27.27;16.80;;;16.50;99.90;;;;;;5015312;28;20053;-79
2023/10/13 01:45:49;;;;;;;30.65;17.80;;;16.50;99.90;;;;;;5016237;28;20048;-78
2023/10/13 01:48:21;;;;;;;26.13;16.27;;;16.50;99.90;;;;;;5015402;28;20049;-79
2023/10/13 01:53:42;;;;;;;27.92;17.08;;;16.50;99.90;;;;;;5006622;28;20058;-78
2023/10/13 01:56:11;;;;;;;26.58;15.32;;;16.50;99.90;;;;;;5015113;28;20057;-78
2023/10/13 01:58:42;;;;;;;23.45;14.95;;;16.50;99.90;;;;;;5015047;28;20046;-77
2023/10/13 02:01:10;;;;;;;25.10;15.85;;;16.40;99.90;;;;;;5016047;28;20050;-77
2023/10/13 02:03:42;;;;;;;21.60;14.25;;;16.50;99.90;;;;;;5015715;28;20131;-77
2023/10/13 02:06:10;;;;;;;23.23;15.38;;;16.50;99.90;;;;;;4999088;28;20085;-77
2023/10/13 02:08:44;;;;;;;22.42;13.77;;;16.50;99.90;;;;;;5014847;28;20046;-77
2023/10/13 02:11:09;;;;;;;20.70;13.10;;;16.50;99.90;;;;;;5015873;28;20056;-77
2023/10/13 02:13:49;;;;;;;23.70;14.07;;;16.50;99.90;;;;;;5018850;28;20041;-78
2023/10/13 02:16:21;;;;;;;23.50;14.55;;;16.40;99.90;;;;;;5017450;28;20049;-77
2023/10/13 02:18:51;;;;;;;22.02;14.02;;;16.50;99.90;;;;;;5015505;28;20050;-78
2023/10/13 02:21:17;;;;;;;21.40;13.77;;;16.50;99.90;;;;;;5015607;28;20046;-77
2023/10/13 02:23:45;;;;;;;22.25;13.68;;;16.50;99.90;;;;;;5015526;28;20096;-77
2023/10/13 02:26:14;;;;;;;20.13;13.70;;;16.50;99.90;;;;;;5030992;28;20080;-77
2023/10/13 02:28:40;;;;;;;22.30;13.18;;;16.50;99.90;;;;;;5014318;28;20045;-78
2023/10/13 02:31:06;;;;;;;22.20;13.35;;;16.40;99.90;;;;;;5015232;28;20355;-77
2023/10/13 02:33:34;;;;;;;21.23;12.88;;;16.50;99.90;;;;;;5014039;28;20050;-77
2023/10/13 02:36:05;;;;;;;20.48;13.05;;;16.50;99.90;;;;;;5015309;28;20077;-76
2023/10/13 02:38:45;;;;;;;20.35;13.10;;;16.50;99.90;;;;;;5015354;28;20050;-77
2023/10/13 02:41:28;;;;;;;20.98;13.52;;;16.40;99.90;;;;;;5015009;28;20064;-76
2023/10/13 02:43:55;;;;;;;19.67;12.07;;;16.50;99.90;;;;;;5014872;28;20065;-76
2023/10/13 02:46:22;;;;;;;19.05;13.40;;;16.50;99.90;;;;;;5013756;28;20133;-76
2023/10/13 02:48:53;;;;;;;21.88;12.93;;;16.50;99.90;;;;;;5015358;28;20042;-76
2023/10/13 02:51:25;;;;;;;19.08;12.20;;;16.50;99.90;;;;;;5014381;28;20060;-77
2023/10/13 02:53:52;;;;;;;19.15;12.00;;;16.50;99.90;;;;;;5013653;28;20057;-76
2023/10/13 02:56:22;;;;;;;23.05;13.38;;;16.50;99.90;;;;;;5014728;28;20049;-76
2023/10/13 02:59:04;;;;;;;22.13;13.27;;;16.50;99.90;;;;;;5013855;28;20046;-76
2023/10/13 03:01:34;;;;;;;19.92;13.10;;;16.50;99.90;;;;;;5014201;28;20041;-77
2023/10/13 03:04:00;;;;;;;20.13;12.65;;;16.50;99.90;;;;;;5014836;28;20046;-77
2023/10/13 03:06:33;;;;;;;19.52;12.30;;;16.50;99.90;;;;;;5013558;28;20041;-76
2023/10/13 03:09:17;;;;;;;19.67;12.10;;;16.50;99.90;;;;;;5014428;28;20104;-76
2023/10/13 03:11:48;;;;;;;20.75;12.65;;;16.50;99.90;;;;;;5013542;28;20050;-76
2023/10/13 03:14:32;;;;;;;21.45;12.05;;;16.50;99.90;;;;;;5015177;28;20445;-76
2023/10/13 03:17:03;;;;;;;19.30;12.55;;;16.50;99.90;;;;;;5014306;28;20061;-76
2023/10/13 03:19:36;;;;;;;19.70;13.00;;;16.40;99.90;;;;;;5013307;28;20061;-77
2023/10/13 03:22:11;;;;;;;20.13;11.25;;;16.50;99.90;;;;;;5013722;28;20054;-76
2023/10/13 03:24:41;;;;;;;18.05;11.60;;;16.40;99.90;;;;;;5013610;28;20049;-77
2023/10/13 03:27:11;;;;;;;20.23;12.32;;;16.40;99.90;;;;;;5014981;28;20050;-78
2023/10/13 03:29:42;;;;;;;22.55;12.88;;;16.40;99.90;;;;;;5014301;28;20049;-76
2023/10/13 03:32:12;;;;;;;22.55;13.07;;;16.40;99.90;;;;;;5013292;28;20108;-77
2023/10/13 03:37:38;;;;;;;22.60;12.43;;;16.40;99.90;;;;;;5014127;28;20045;-78
2023/10/13 03:45:24;;;;;;;22.05;13.48;;;16.40;99.90;;;;;;5014214;28;20108;-78
2023/10/13 03:47:51;;;;;;;22.08;13.25;;;16.40;99.90;;;;;;5012610;28;20452;-79
2023/10/13 03:50:29;;;;;;;20.42;13.38;;;16.40;99.90;;;;;;5013844;28;20096;-78
2023/10/13 03:52:57;;;;;;;21.02;12.48;;;16.40;99.90;;;;;;5013439;28;20490;-78
2023/10/13 03:55:26;;;;;;;18.80;12.15;;;16.40;99.90;;;;;;5013013;28;20502;-79
2023/10/13 03:57:53;;;;;;;19.52;13.07;;;16.40;99.90;;;;;;5012664;28;20136;-79
2023/10/13 04:00:31;;;;;;;20.35;12.18;;;16.40;99.90;;;;;;5011872;28;20519;-78
2023/10/13 04:03:09;;;;;;;20.27;12.57;;;16.40;99.90;;;;;;5013704;28;20132;-78
2023/10/13 04:05:45;;;;;;;21.83;13.73;;;16.40;99.90;;;;;;5013257;28;20137;-78
2023/10/13 04:29:51;;;;;;;19.52;11.82;;;16.30;99.90;;;;;;5012947;28;20053;-79
2023/10/13 04:32:38;;;;;;;19.48;11.52;;;16.30;99.90;;;;;;5013318;28;20506;-80
2023/10/13 04:38:01;;;;;;;17.10;10.70;;;16.30;99.90;;;;;;5012853;28;20548;-78
2023/10/13 04:40:25;;;;;;;19.15;11.10;;;16.30;99.90;;;;;;4998131;28;20153;-78
2023/10/13 04:43:04;;;;;;;15.65;10.82;;;16.30;99.90;;;;;;5013534;28;20143;-78
2023/10/13 04:50:47;;;;;;;15.85;10.52;;;16.30;99.90;;;;;;5012338;28;20418;-78
2023/10/13 04:53:59;;;;;;;17.33;10.20;;;16.30;99.90;;;;;;5012833;28;20046;-75
2023/10/13 04:59:35;;;;;;;15.45;9.77;;;16.20;99.90;;;;;;4961207;28;20105;-74
2023/10/13 05:51:33;;;;;;;11.32;8.07;;;16.10;99.90;;;;;;4992148;28;20494;-75
2023/10/13 06:29:56;;;;;;;8.98;5.93;;;16.10;99.90;;;;;;5015190;28;20052;-65
2023/10/13 06:32:26;;;;;;;8.93;5.70;;;16.10;99.90;;;;;;5015045;28;20050;-65
2023/10/13 06:34:58;;;;;;;8.55;5.85;;;16.10;99.90;;;;;;5014880;28;20050;-65
2023/10/13 06:37:34;;;;;;;9.13;5.50;;;16.10;99.90;;;;;;5015328;28;20049;-65
2023/10/13 06:40:25;;;;;;;9.48;5.60;;;16.10;99.90;;;;;;5014887;28;20092;-65
2023/10/13 06:42:53;;;;;;;8.23;5.13;;;16.20;99.90;;;;;;5014994;28;20048;-65
2023/10/13 06:45:20;;;;;;;7.40;4.97;;;16.20;99.90;;;;;;5014863;28;20045;-64
2023/10/13 06:47:46;;;;;;;8.45;5.30;;;16.20;99.90;;;;;;5014921;28;20085;-64
2023/10/13 06:50:15;;;;;;;9.90;5.70;;;16.30;99.90;;;;;;5015083;28;20089;-64
2023/10/13 06:52:46;;;;;;;8.07;5.28;;;16.30;99.90;;;;;;5014983;28;20046;-64
2023/10/13 06:55:23;;;;;;;8.52;5.55;;;16.30;99.90;;;;;;5015483;28;20496;-64
2023/10/13 06:57:51;;;;;;;10.25;5.00;;;16.40;99.90;;;;;;5015025;28;20049;-64
2023/10/13 07:00:27;;;;;;;8.05;5.45;;;16.50;99.90;;;;;;5014861;28;20053;-64
2023/10/13 07:02:53;;;;;;;6.80;5.25;;;16.50;99.90;;;;;;5013561;28;20065;-64
2023/10/13 07:05:19;;;;;;;7.32;5.38;;;16.50;99.90;;;;;;5014354;28;20095;-64
2023/10/13 07:07:45;;;;;;;7.15;4.57;;;16.60;99.90;;;;;;5014575;28;20042;-64
2023/10/13 07:10:12;;;;;;;7.70;4.45;;;16.60;99.90;;;;;;5014048;28;20045;-64
2023/10/13 07:12:43;;;;;;;6.75;4.38;;;16.70;99.90;;;;;;5014628;28;20057;-64
2023/10/13 07:17:45;;;;;;;7.38;4.03;;;16.70;99.90;;;;;;5014411;28;20046;-76
2023/10/13 07:20:44;;;;;;;8.60;4.40;;;16.70;99.90;;;;;;5014837;28;20053;-75
2023/10/13 07:23:11;;;;;;;6.90;4.15;;;16.70;99.90;;;;;;5010088;28;20060;-78
2023/10/13 07:25:38;;;;;;;7.68;3.78;;;16.70;99.90;;;;;;5014137;28;20116;-78
2023/10/13 07:28:06;;;;;;;5.18;3.55;;;16.70;99.90;;;;;;5014285;28;20118;-78
2023/10/13 07:30:39;;;;;;;6.35;3.70;;;16.70;99.90;;;;;;4996979;28;20049;-77
2023/10/13 07:33:05;;;;;;;6.38;3.60;;;16.70;99.90;;;;;;5014627;28;20049;-77
2023/10/13 07:35:35;;;;;;;5.13;3.33;;;16.80;99.90;;;;;;5014819;28;20042;-77
2023/10/13 07:38:01;;;;;;;8.13;4.13;;;16.80;99.90;;;;;;5013004;28;20050;-76
2023/10/13 07:40:39;;;;;;;6.40;3.90;;;16.70;99.90;;;;;;5013066;28;20053;-78
2023/10/13 07:43:09;;;;;;;7.85;3.63;;;16.70;99.90;;;;;;5032094;28;20076;-78
2023/10/13 07:45:40;;;;;;;7.13;3.65;;;16.70;99.90;;;;;;5014443;28;20046;-80
2023/10/13 07:48:28;;;;;;;7.95;3.92;;;16.80;99.90;;;;;;4996913;28;20056;-80
2023/10/13 07:51:05;;;;;;;5.07;3.42;;;16.80;99.90;;;;;;5045101;28;20058;-79
2023/10/13 07:53:34;;;;;;;6.82;3.90;;;16.80;99.90;;;;;;5013846;28;20100;-78
2023/10/13 07:56:05;;;;;;;7.03;4.82;;;16.80;99.90;;;;;;5012967;28;20045;-77
2023/10/13 07:58:34;;;;;;;7.43;5.00;;;16.80;99.90;;;;;;5014337;28;20057;-77
2023/10/13 08:01:16;;;;;;;7.82;4.97;;;16.80;99.90;;;;;;5012618;28;20046;-77
2023/10/13 08:03:44;;;;;;;8.63;4.50;;;16.80;99.90;;;;;;5013131;28;20050;-75
2023/10/13 08:08:38;;;;;;;5.88;4.30;;;16.80;99.90;;;;;;5013753;28;20053;-77
2023/10/13 08:13:53;;;;;;;6.38;3.53;;;16.80;99.90;;;;;;5013252;28;20399;-76
2023/10/13 08:16:27;;;;;;;8.18;4.03;;;16.90;99.90;;;;;;5013050;28;20049;-76
2023/10/13 08:18:53;;;;;;;6.47;4.28;;;16.90;99.90;;;;;;5012694;28;20096;-73
2023/10/13 08:21:31;;;;;;;10.15;4.50;;;16.90;99.90;;;;;;5013646;28;20049;-73
2023/10/13 08:23:59;;;;;;;9.70;4.18;;;16.90;99.90;;;;;;5013786;28;20402;-72
2023/10/13 08:32:14;;;;;;;9.70;4.88;;;16.90;99.90;;;;;;5012807;28;20108;-73
2023/10/13 08:35:22;;;;;;;9.95;4.68;;;16.90;99.90;;;;;;5013034;28;20566;-71
2023/10/13 08:48:14;;;;;;;8.27;4.53;;;17.00;99.90;;;;;;5018050;28;20456;-72
2023/10/13 08:50:53;;;;;;;9.02;4.88;;;17.00;99.90;;;;;;5017391;28;20050;-72
2023/10/13 08:59:22;;;;;;;9.95;5.00;;;17.20;99.90;;;;;;5017371;28;20089;-72
2023/10/13 09:01:34;;;;;;;6.80;4.15;;;17.30;99.90;;;;;;5012882;28;20135;-71
2023/10/13 09:07:07;;;;;;;7.75;4.78;;;17.50;99.90;;;;;;5016829;28;20045;-72
2023/10/13 09:13:00;;;;;;;6.95;4.53;;;17.60;99.90;;;;;;5016942;28;20538;-73
2023/10/13 09:18:12;;;;;;;6.63;4.15;;;17.80;99.90;;;;;;5015466;28;20149;-71
2023/10/13 09:23:44;;;;;;;8.70;4.28;;;18.00;99.90;;;;;;5016627;28;20100;-71
2023/10/13 09:26:09;;;;;;;8.57;4.32;;;18.00;99.90;;;;;;5016507;28;20045;-71
2023/10/13 09:28:37;;;;;;;7.30;3.97;;;18.10;99.90;;;;;;5017028;28;20148;-74
2023/10/13 09:31:09;;;;;;;9.18;4.28;;;18.20;99.90;;;;;;5015198;28;20081;-71
2023/10/13 09:33:36;;;;;;;8.40;4.43;;;18.30;99.90;;;;;;5016016;28;20376;-72
2023/10/13 09:36:04;;;;;;;7.53;3.72;;;18.40;99.90;;;;;;5016402;28;20049;-72
2023/10/13 09:38:33;;;;;;;6.50;3.95;;;18.50;99.90;;;;;;5016204;28;20053;-72
2023/10/13 09:41:09;;;;;;;7.20;3.88;;;18.50;99.90;;;;;;5016200;28;20042;-73
2023/10/13 09:43:37;;;;;;;7.63;4.18;;;18.50;99.90;;;;;;5016149;28;20103;-73
2023/10/13 09:46:07;;;;;;;7.47;4.07;;;18.40;99.90;;;;;;5016064;28;20057;-72
2023/10/13 09:48:45;;;;;;;9.50;5.45;;;18.40;99.90;;;;;;5016395;28;20438;-73
2023/10/13 09:51:22;;;;;;;11.00;4.40;;;18.30;99.90;;;;;;5016933;28;20370;-75
2023/10/13 09:54:09;;;;;;;7.85;4.38;;;18.40;99.90;;;;;;5016054;28;20050;-72
2023/10/13 09:56:51;;;;;;;9.63;4.55;;;18.30;99.90;;;;;;5013809;28;20391;-73
2023/10/13 09:59:24;;;;;;;7.55;3.90;;;18.40;99.90;;;;;;5015903;28;20050;-74
2023/10/13 10:01:51;;;;;;;10.77;4.03;;;18.50;99.90;;;;;;5015915;28;20056;-72
2023/10/13 10:04:19;;;;;;;8.18;3.75;;;18.60;99.90;;;;;;5015786;28;20046;-73
2023/10/13 10:06:59;;;;;;;7.30;3.80;;;18.60;99.90;;;;;;5015661;28;20046;-72
2023/10/13 10:09:39;;;;;;;9.77;4.15;;;18.60;99.90;;;;;;5014627;28;20502;-72
2023/10/13 10:12:28;;;;;;;12.23;4.55;;;18.70;99.90;;;;;;5016210;28;20053;-72
2023/10/13 10:14:56;;;;;;;6.40;4.03;;;18.60;99.90;;;;;;5015832;28;20141;-73
2023/10/13 10:17:23;;;;;;;7.82;3.95;;;18.70;99.90;;;;;;5016188;28;20448;-73
2023/10/13 10:19:53;;;;;;;6.32;3.75;;;18.70;99.90;;;;;;5015361;28;20053;-71
2023/10/13 10:22:36;;;;;;;8.55;3.58;;;18.80;99.90;;;;;;5015451;28;20053;-71
2023/10/13 10:25:25;;;;;;;7.43;3.90;;;18.80;99.90;;;;;;5015421;28;20050;-71
2023/10/13 10:27:58;;;;;;;9.27;3.83;;;18.80;99.90;;;;;;5015400;28;20054;-72
2023/10/13 10:30:25;;;;;;;7.05;3.50;;;18.90;99.90;;;;;;5014077;28;20129;-70
2023/10/13 10:32:59;;;;;;;6.43;3.78;;;18.90;99.90;;;;;;5015273;28;20042;-71
2023/10/13 10:35:32;;;;;;;8.40;4.20;;;19.00;99.90;;;;;;5014222;28;20057;-71
2023/10/13 10:40:59;;;;;;;10.07;3.90;;;19.00;99.90;;;;;;5014467;28;20050;-71
2023/10/13 10:43:42;;;;;;;8.45;4.15;;;19.00;99.90;;;;;;5015110;28;20046;-71
2023/10/13 10:46:17;;;;;;;8.48;3.70;;;19.00;99.90;;;;;;5014997;28;20077;-71
2023/10/13 10:48:43;;;;;;;6.97;4.18;;;19.00;99.90;;;;;;5013685;28;20054;-71
2023/10/13 10:51:22;;;;;;;9.80;4.13;;;19.00;99.90;;;;;;5013752;28;20108;-71
2023/10/13 10:53:52;;;;;;;8.10;4.43;;;19.10;99.90;;;;;;5015800;28;20045;-71
2023/10/13 10:59:04;;;;;;;8.52;4.15;;;19.10;99.90;;;;;;5015369;28;20050;-71
2023/10/13 11:01:34;;;;;;;9.05;4.25;;;19.20;99.90;;;;;;5014672;28;20050;-72
2023/10/13 11:06:54;;;;;;;10.88;4.38;;;19.30;99.90;;;;;;5014866;28;20096;-71
2023/10/13 11:09:31;;;;;;;9.55;3.90;;;19.40;99.90;;;;;;5014198;28;20103;-72
2023/10/13 11:12:24;;;;;;;8.20;4.28;;;19.30;99.90;;;;;;5014618;28;20061;-76
2023/10/13 11:15:00;;;;;;;9.80;4.10;;;19.30;99.90;;;;;;5013942;28;20387;-73
2023/10/13 11:17:33;;;;;;;8.48;4.13;;;19.30;99.90;;;;;;5014530;28;20069;-75
2023/10/13 11:20:15;;;;;;;10.75;4.00;;;19.40;99.90;;;;;;5015066;28;20050;-75
2023/10/13 11:22:46;;;;;;;8.73;4.30;;;19.40;99.90;;;;;;5013807;28;20054;-74
2023/10/13 11:25:22;;;;;;;7.13;3.67;;;19.40;99.90;;;;;;5014794;28;20162;-75
2023/10/13 11:30:49;;;;;;;6.78;4.30;;;19.40;99.90;;;;;;5014347;28;20061;-72
2023/10/13 11:33:11;;;;;;;9.73;4.28;;;19.40;99.90;;;;;;5012957;28;20136;-72
2023/10/13 11:38:29;;;;;;;9.85;4.25;;;19.50;99.90;;;;;;5014087;28;20050;-71
2023/10/13 11:46:13;;;;;;;7.68;3.90;;;19.50;99.90;;;;;;5013755;28;20103;-80
2023/10/13 11:48:44;;;;;;;7.03;4.40;;;19.60;99.90;;;;;;5012648;28;20057;-77
2023/10/13 11:51:17;;;;;;;8.98;3.95;;;19.80;99.90;;;;;;5012236;28;20518;-74
2023/10/13 11:53:51;;;;;;;9.02;4.32;;;19.90;99.90;;;;;;5013732;28;20506;-76
2023/10/13 11:56:22;;;;;;;10.05;4.25;;;20.00;99.90;;;;;;5013402;28;20505;-76
2023/10/13 11:58:48;;;;;;;9.57;3.75;;;20.00;99.90;;;;;;5013490;28;20050;-75
2023/10/13 12:11:44;;;;;;;10.02;4.45;;;19.90;99.90;;;;;;5012374;28;20479;-72
2023/10/13 12:14:17;;;;;;;10.77;4.60;;;19.90;99.90;;;;;;5012455;28;20085;-72
2023/10/13 12:16:50;;;;;;;6.55;3.95;;;20.00;99.90;;;;;;5013508;28;20104;-72
2023/10/13 12:19:23;;;;;;;9.80;4.38;;;20.00;99.90;;;;;;5014026;28;20108;-73
2023/10/13 12:21:56;;;;;;;9.70;3.83;;;20.00;99.90;;;;;;5016882;28;20084;-73
2023/10/13 12:27:17;;;;;;;8.10;4.28;;;19.90;99.90;;;;;;5017117;28;20042;-73
2023/10/13 12:29:46;;;;;;;10.02;4.03;;;19.90;99.90;;;;;;5016501;28;20590;-74
2023/10/13 12:32:13;;;;;;;7.13;3.70;;;20.00;99.90;;;;;;5017334;28;20050;-73
2023/10/13 12:51:21;;;;;;;7.32;3.70;;;20.00;99.90;;;;;;5015705;28;20151;-75
2023/10/13 12:53:51;;;;;;;8.55;3.72;;;20.10;99.90;;;;;;5000439;28;20056;-76
2023/10/13 12:56:25;;;;;;;8.07;4.60;;;20.20;99.90;;;;;;5015935;28;20498;-74
2023/10/13 12:58:51;;;;;;;7.75;4.30;;;20.30;99.90;;;;;;5015968;28;20188;-75
2023/10/13 13:01:32;;;;;;;10.02;4.43;;;20.30;99.90;;;;;;5015762;28;20084;-75
2023/10/13 13:03:59;;;;;;;15.02;4.82;;;20.30;99.90;;;;;;5016865;28;20478;-74
2023/10/13 13:06:29;;;;;;;8.55;3.88;;;20.40;99.90;;;;;;5016727;28;20053;-77
2023/10/13 13:08:59;;;;;;;7.35;3.83;;;20.40;99.90;;;;;;5016890;28;20046;-73
2023/10/13 13:11:28;;;;;;;8.60;4.82;;;20.40;99.90;;;;;;5016424;28;20375;-75
2023/10/13 13:13:54;;;;;;;10.15;4.22;;;20.40;99.90;;;;;;5016482;28;20137;-75
2023/10/13 13:16:23;;;;;;;7.22;4.50;;;20.30;99.90;;;;;;4999040;28;20046;-74
2023/10/13 13:18:55;;;;;;;9.98;4.45;;;20.40;99.90;;;;;;5016392;28;20042;-78
2023/10/13 13:21:23;;;;;;;6.50;4.22;;;20.40;99.90;;;;;;5015660;28;20540;-76
2023/10/13 13:23:55;;;;;;;9.85;3.85;;;20.40;99.90;;;;;;5016372;28;20049;-75
2023/10/13 13:26:21;;;;;;;10.88;4.95;;;20.40;99.90;;;;;;5016218;28;20038;-78
2023/10/13 13:28:51;;;;;;;9.65;4.82;;;20.50;99.90;;;;;;5016171;28;20054;-74
2023/10/13 13:31:29;;;;;;;8.98;4.75;;;20.40;99.90;;;;;;5015883;28;20049;-77
2023/10/13 13:33:55;;;;;;;9.77;4.38;;;20.40;99.90;;;;;;5016578;28;20049;-75
2023/10/13 13:36:22;;;;;;;9.30;4.63;;;20.40;99.90;;;;;;5014946;28;20434;-75
2023/10/13 13:38:50;;;;;;;7.85;4.35;;;20.40;99.90;;;;;;5016017;28;20053;-73
2023/10/13 13:41:17;;;;;;;8.45;4.00;;;20.50;99.90;;;;;;5015987;28;20128;-75
2023/10/13 13:43:54;;;;;;;10.25;4.63;;;20.40;99.90;;;;;;5016526;28;20429;-74
2023/10/13 13:46:33;;;;;;;8.30;4.50;;;20.40;99.90;;;;;;5016145;28;20112;-74
2023/10/13 13:49:00;;;;;;;9.18;3.92;;;20.40;99.90;;;;;;5016604;28;20112;-76
2023/10/13 13:51:31;;;;;;;7.38;4.03;;;20.50;99.90;;;;;;5014286;28;20411;-76
2023/10/13 13:53:58;;;;;;;9.60;3.95;;;20.40;99.90;;;;;;5014907;28;20061;-78
2023/10/13 13:56:28;;;;;;;6.47;4.13;;;20.30;99.90;;;;;;5014511;28;20033;-75
2023/10/13 13:59:02;;;;;;;8.90;4.15;;;20.20;99.90;;;;;;5014498;28;20054;-78
2023/10/13 14:01:34;;;;;;;9.45;4.65;;;20.10;99.90;;;;;;5015015;28;20395;-78
2023/10/13 14:04:03;;;;;;;12.20;4.90;;;19.80;99.90;;;;;;5015450;28;20100;-76
2023/10/13 14:06:29;;;;;;;8.75;4.60;;;19.60;99.90;;;;;;5015995;28;20124;-76
2023/10/13 14:08:56;;;;;;;10.13;4.65;;;19.40;99.90;;;;;;5015042;28;20348;-75
2023/10/13 14:14:12;;;;;;;8.10;4.88;;;19.20;99.90;;;;;;5015700;28;20402;-76
2023/10/13 14:16:44;;;;;;;8.43;5.00;;;19.20;99.90;;;;;;5015558;28;20042;-76
2023/10/13 14:19:29;;;;;;;9.43;5.00;;;19.10;99.90;;;;;;5015052;28;20137;-74
2023/10/13 14:21:55;;;;;;;9.98;5.45;;;19.10;99.90;;;;;;5015831;28;20085;-75
2023/10/13 14:24:32;;;;;;;10.30;5.28;;;19.10;99.90;;;;;;5015216;28;20054;-75
2023/10/13 14:27:09;;;;;;;6.43;4.47;;;19.10;99.90;;;;;;5015780;28;20034;-75
2023/10/13 14:29:42;;;;;;;9.30;5.05;;;19.10;99.90;;;;;;5014251;28;20060;-74
2023/10/13 14:32:13;;;;;;;11.82;5.65;;;19.10;99.90;;;;;;5015219;28;20089;-75
2023/10/13 14:34:44;;;;;;;8.18;5.18;;;19.10;99.90;;;;;;5015156;28;20038;-74
2023/10/13 14:37:13;;;;;;;9.82;5.18;;;19.10;99.90;;;;;;5015631;28;20053;-75
2023/10/13 14:39:42;;;;;;;11.38;5.63;;;19.10;99.90;;;;;;5014982;28;20045;-76
2023/10/13 14:42:08;;;;;;;8.15;5.20;;;19.00;99.90;;;;;;4997344;28;20359;-75
2023/10/13 14:44:34;;;;;;;11.70;5.07;;;19.00;99.90;;;;;;5015154;28;20053;-75
2023/10/13 14:47:05;;;;;;;8.45;4.90;;;19.00;99.90;;;;;;5014440;28;20053;-75
2023/10/13 14:49:31;;;;;;;10.30;5.07;;;19.00;99.90;;;;;;5015092;28;20137;-75
2023/10/13 14:51:59;;;;;;;10.23;5.03;;;19.10;99.90;;;;;;5014490;28;20477;-76
2023/10/13 14:54:32;;;;;;;11.68;4.72;;;19.10;99.90;;;;;;5014492;28;20096;-75
2023/10/13 14:57:04;;;;;;;11.07;5.35;;;19.20;99.90;;;;;;5014537;28;20442;-75
2023/10/13 14:59:33;;;;;;;8.93;5.10;;;19.20;99.90;;;;;;5014540;28;20050;-76
2023/10/13 15:02:01;;;;;;;14.10;5.22;;;19.20;99.90;;;;;;5014442;28;20100;-76
2023/10/13 15:04:28;;;;;;;10.05;5.40;;;19.10;99.90;;;;;;4997320;28;20097;-77
2023/10/13 15:06:55;;;;;;;10.90;5.45;;;18.90;99.90;;;;;;5029973;28;20045;-81
2023/10/13 15:09:23;;;;;;;11.27;5.53;;;18.80;99.90;;;;;;5013444;28;20087;-75
2023/10/13 15:11:53;;;;;;;10.25;5.30;;;18.50;99.90;;;;;;5013905;28;20061;-77
2023/10/13 15:14:20;;;;;;;8.80;5.40;;;18.30;99.90;;;;;;5014885;28;20372;-76
2023/10/13 15:16:46;;;;;;;10.40;5.78;;;18.20;99.90;;;;;;5015143;28;20045;-74
2023/10/13 15:19:12;;;;;;;8.82;5.70;;;18.00;99.90;;;;;;5014694;28;20057;-76
2023/10/13 15:21:40;;;;;;;9.20;5.30;;;18.00;99.90;;;;;;5014404;28;20482;-75
2023/10/13 15:24:13;;;;;;;10.80;6.63;;;18.00;99.90;;;;;;5014460;28;20054;-75
2023/10/13 15:26:47;;;;;;;8.32;5.45;;;17.90;99.90;;;;;;5013586;28;20049;-76
2023/10/13 15:29:17;;;;;;;10.63;5.82;;;17.90;99.90;;;;;;5013739;28;20050;-75
2023/10/13 15:34:26;;;;;;;11.88;6.28;;;17.90;99.90;;;;;;5014215;28;20508;-76
2023/10/13 15:36:52;;;;;;;11.23;5.65;;;17.90;99.90;;;;;;5014510;28;20402;-76
2023/10/13 15:39:23;;;;;;;9.82;5.43;;;17.90;99.90;;;;;;5014530;28;20041;-75
2023/10/13 15:41:52;;;;;;;10.93;6.40;;;17.90;99.90;;;;;;5014294;28;20112;-76
2023/10/13 15:44:24;;;;;;;11.48;6.03;;;17.90;99.90;;;;;;5014740;28;20383;-77
2023/10/13 15:46:53;;;;;;;10.45;5.80;;;17.90;99.90;;;;;;5014203;28;20046;-78
2023/10/13 15:49:19;;;;;;;9.05;5.53;;;17.80;99.90;;;;;;5014045;28;20092;-75
2023/10/13 15:51:45;;;;;;;8.50;5.65;;;17.80;99.90;;;;;;5013689;28;20093;-77
2023/10/13 15:54:17;;;;;;;10.45;6.00;;;17.80;99.90;;;;;;5013994;28;20053;-76
2023/10/13 15:56:48;;;;;;;10.07;6.50;;;17.70;99.90;;;;;;4997153;28;20501;-75
2023/10/13 15:59:14;;;;;;;9.52;5.07;;;17.70;99.90;;;;;;5013422;28;20444;-75
2023/10/13 16:01:40;;;;;;;8.38;5.00;;;17.70;99.90;;;;;;5012865;28;20092;-75
2023/10/13 16:04:13;;;;;;;10.27;5.05;;;17.70;99.90;;;;;;5013827;28;20069;-75
2023/10/13 16:06:39;;;;;;;5.70;4.60;;;17.80;99.90;;;;;;5013578;28;20046;-75
2023/10/13 16:09:13;;;;;;;8.93;5.10;;;17.80;99.90;;;;;;5012650;28;20049;-76
2023/10/13 16:11:40;;;;;;;8.68;5.07;;;17.80;99.90;;;;;;5013644;28;20411;-76
2023/10/13 16:14:10;;;;;;;8.82;4.57;;;17.80;99.90;;;;;;5014324;28;20058;-75
2023/10/13 16:16:36;;;;;;;7.43;4.80;;;17.80;99.90;;;;;;4997776;28;20052;-76
2023/10/13 16:19:04;;;;;;;8.00;4.40;;;17.80;99.90;;;;;;5012667;28;20057;-76
2023/10/13 16:21:30;;;;;;;8.55;4.18;;;17.80;99.90;;;;;;5014498;28;20075;-77
2023/10/13 16:23:56;;;;;;;9.98;4.90;;;17.80;99.90;;;;;;5012653;28;20478;-76
2023/10/13 16:26:22;;;;;;;10.18;5.07;;;17.80;99.90;;;;;;5013530;28;20042;-76
2023/10/13 16:28:57;;;;;;;13.85;5.53;;;17.70;99.90;;;;;;5014194;28;20053;-76
2023/10/13 16:31:23;;;;;;;11.77;5.87;;;17.70;99.90;;;;;;5012576;28;20095;-76
2023/10/13 16:33:49;;;;;;;10.50;5.60;;;17.70;99.90;;;;;;5012470;28;20312;-75
2023/10/13 16:36:15;;;;;;;11.48;5.55;;;17.70;99.90;;;;;;5014011;28;20081;-76
2023/10/13 16:38:45;;;;;;;12.05;6.10;;;17.70;99.90;;;;;;5012364;28;20077;-77
2023/10/13 16:41:12;;;;;;;9.98;5.38;;;17.70;99.90;;;;;;5013651;28;20049;-76
2023/10/13 16:43:39;;;;;;;10.60;5.28;;;17.70;99.90;;;;;;4996290;28;20474;-76
2023/10/13 16:46:11;;;;;;;10.80;5.45;;;17.80;99.90;;;;;;4996131;28;20060;-76